Time;durP1;ratioP1;P1;durP2;ratioP2;P2;SDS_P1;SDS_P2;PMS_P1;PMS_P2;Temp;Humidity;BMP_temperature;BMP_pressure;BME280_temperature;BME280_humidity;BME280_pressure;Samples;Min_cycle;Max_cycle;Signal;HPM_P1;HPM_P2
2021/09/27 00:00:52;;;;;;;2.38;2.00;;;;;;;;;;4998792;28;20489;-73
2021/09/27 00:03:18;;;;;;;2.97;1.90;;;;;;;;;;4998571;28;20130;-73
2021/09/27 00:05:44;;;;;;;4.10;2.50;;;;;;;;;;4998986;28;20026;-73
2021/09/27 00:08:10;;;;;;;1.90;1.70;;;;;;;;;;4998095;28;20034;-74
2021/09/27 00:10:42;;;;;;;5.07;1.88;;;;;;;;;;4998316;28;20118;-73
2021/09/27 00:13:09;;;;;;;2.13;1.60;;;;;;;;;;4998032;28;20014;-73
2021/09/27 00:15:37;;;;;;;4.15;2.00;;;;;;;;;;4998358;28;20543;-68
2021/09/27 00:18:04;;;;;;;5.85;1.92;;;;;;;;;;4997541;28;20054;-72
2021/09/27 00:20:30;;;;;;;2.35;1.85;;;;;;;;;;4996914;28;20025;-73
2021/09/27 00:22:56;;;;;;;3.10;1.98;;;;;;;;;;4998623;28;20019;-73
2021/09/27 00:25:26;;;;;;;4.40;1.83;;;;;;;;;;4998275;28;20385;-68
2021/09/27 00:27:52;;;;;;;5.07;2.20;;;;;;;;;;4997937;28;20046;-71
2021/09/27 00:30:19;;;;;;;4.60;2.20;;;;;;;;;;4998291;28;20049;-72
2021/09/27 00:32:45;;;;;;;5.65;2.20;;;;;;;;;;4998375;28;20077;-72
2021/09/27 00:35:13;;;;;;;4.00;2.00;;;;;;;;;;4998673;28;20030;-73
2021/09/27 00:37:39;;;;;;;2.13;1.92;;;;;;;;;;5006563;28;20022;-69
2021/09/27 00:40:06;;;;;;;3.88;2.53;;;;;;;;;;5003248;28;20057;-71
2021/09/27 00:42:32;;;;;;;2.40;1.88;;;;;;;;;;5004917;28;20487;-69
2021/09/27 00:44:58;;;;;;;2.13;1.88;;;;;;;;;;5004726;28;20417;-73
2021/09/27 00:47:24;;;;;;;2.92;2.15;;;;;;;;;;4998513;28;20034;-73
2021/09/27 00:49:51;;;;;;;2.38;1.80;;;;;;;;;;4999690;28;20026;-68
2021/09/27 00:52:18;;;;;;;4.75;2.03;;;;;;;;;;5002891;28;20105;-71
2021/09/27 00:54:45;;;;;;;8.43;2.50;;;;;;;;;;5006480;28;20032;-69
2021/09/27 00:57:14;;;;;;;3.75;2.20;;;;;;;;;;5006649;28;20046;-68
2021/09/27 00:59:41;;;;;;;3.92;1.88;;;;;;;;;;5007687;28;20026;-69
2021/09/27 01:02:08;;;;;;;2.78;1.80;;;;;;;;;;5003453;28;20032;-73
2021/09/27 01:04:35;;;;;;;3.33;2.10;;;;;;;;;;4999056;28;20053;-72
2021/09/27 01:07:21;;;;;;;3.50;2.05;;;;;;;;;;4997902;28;20034;-74
2021/09/27 01:09:50;;;;;;;3.38;2.00;;;;;;;;;;4997559;28;20461;-71
2021/09/27 01:12:35;;;;;;;2.67;1.60;;;;;;;;;;4997488;28;20335;-71
2021/09/27 01:15:10;;;;;;;2.95;1.83;;;;;;;;;;4996521;28;20053;-73
2021/09/27 01:17:48;;;;;;;2.28;1.80;;;;;;;;;;4997055;28;20057;-68
2021/09/27 01:20:14;;;;;;;2.28;1.80;;;;;;;;;;4995985;28;20466;-73
2021/09/27 01:22:40;;;;;;;7.55;2.15;;;;;;;;;;4996949;28;20030;-71
2021/09/27 01:25:21;;;;;;;3.28;1.67;;;;;;;;;;4996950;28;20083;-73
2021/09/27 01:27:47;;;;;;;2.63;1.80;;;;;;;;;;4997189;28;20026;-71
2021/09/27 01:30:20;;;;;;;1.98;1.77;;;;;;;;;;4997763;28;20096;-72
2021/09/27 01:32:46;;;;;;;1.80;1.55;;;;;;;;;;4997322;28;20022;-72
2021/09/27 01:35:30;;;;;;;3.03;1.70;;;;;;;;;;4997031;28;20026;-72
2021/09/27 01:38:15;;;;;;;2.40;1.75;;;;;;;;;;4996298;28;20081;-73
2021/09/27 01:40:59;;;;;;;2.88;1.50;;;;;;;;;;4996209;28;20077;-73
2021/09/27 01:43:35;;;;;;;3.58;1.67;;;;;;;;;;4998091;28;20041;-74
2021/09/27 01:46:20;;;;;;;3.83;1.80;;;;;;;;;;4997830;28;20026;-74
2021/09/27 01:48:58;;;;;;;4.10;2.55;;;;;;;;;;4996477;28;20038;-74
2021/09/27 01:51:30;;;;;;;5.20;2.03;;;;;;;;;;4997109;28;20409;-73
2021/09/27 01:54:09;;;;;;;3.55;1.90;;;;;;;;;;4997270;28;20057;-69
2021/09/27 01:56:39;;;;;;;4.20;2.40;;;;;;;;;;5000145;28;20106;-76
2021/09/27 01:59:16;;;;;;;6.72;2.22;;;;;;;;;;4999734;28;20034;-71
2021/09/27 02:02:00;;;;;;;2.40;1.77;;;;;;;;;;4999173;28;20026;-74
2021/09/27 02:04:35;;;;;;;4.13;1.77;;;;;;;;;;4997380;28;20046;-74
2021/09/27 02:07:02;;;;;;;2.63;2.03;;;;;;;;;;4996271;28;20085;-71
2021/09/27 02:09:34;;;;;;;3.33;1.80;;;;;;;;;;4996106;28;20030;-74
2021/09/27 02:12:03;;;;;;;3.55;2.00;;;;;;;;;;4996216;28;20019;-73
2021/09/27 02:14:32;;;;;;;2.63;1.90;;;;;;;;;;4996941;28;20035;-74
2021/09/27 02:17:07;;;;;;;5.18;1.65;;;;;;;;;;4997334;28;20023;-74
2021/09/27 02:19:33;;;;;;;;;;;;;;;;;;4999616;28;20042;-72
2021/09/27 02:22:17;;;;;;;3.65;2.25;;;;;;;;;;5002231;28;20257;-70
2021/09/27 02:24:50;;;;;;;4.28;2.05;;;;;;;;;;4998551;28;20030;-75
2021/09/27 02:27:16;;;;;;;4.82;1.88;;;;;;;;;;4998495;28;20033;-74
2021/09/27 02:29:42;;;;;;;1.98;1.73;;;;;;;;;;4996067;28;20604;-68
2021/09/27 02:32:27;;;;;;;3.10;1.67;;;;;;;;;;4996073;28;20026;-72
2021/09/27 02:34:58;;;;;;;3.72;1.98;;;;;;;;;;4995566;28;20033;-74
2021/09/27 02:37:29;;;;;;;5.45;2.42;;;;;;;;;;4995145;28;20023;-74
2021/09/27 02:40:02;;;;;;;4.15;1.77;;;;;;;;;;4993920;28;20027;-73
2021/09/27 02:42:28;;;;;;;3.88;2.00;;;;;;;;;;4995400;28;20026;-73
2021/09/27 02:44:54;;;;;;;3.25;1.88;;;;;;;;;;4996224;28;20033;-72
2021/09/27 02:47:24;;;;;;;2.92;1.83;;;;;;;;;;4995100;28;20049;-72
2021/09/27 02:49:56;;;;;;;3.63;1.90;;;;;;;;;;4995118;28;20063;-72
2021/09/27 02:52:22;;;;;;;5.97;1.92;;;;;;;;;;4998399;28;20030;-73
2021/09/27 02:54:53;;;;;;;4.03;1.88;;;;;;;;;;5002186;28;20027;-73
2021/09/27 02:57:45;;;;;;;6.20;2.45;;;;;;;;;;5006948;28;20022;-72
2021/09/27 03:00:15;;;;;;;5.93;2.10;;;;;;;;;;5007894;28;20106;-69
2021/09/27 03:02:59;;;;;;;5.40;2.63;;;;;;;;;;5009059;28;20366;-69
2021/09/27 03:05:41;;;;;;;8.53;2.23;;;;;;;;;;5010198;28;20045;-68
2021/09/27 03:08:10;;;;;;;7.00;2.35;;;;;;;;;;5010054;28;20806;-68
2021/09/27 03:10:56;;;;;;;7.38;2.22;;;;;;;;;;5007657;28;20034;-69
2021/09/27 03:13:27;;;;;;;4.28;2.05;;;;;;;;;;5003194;28;20018;-72
2021/09/27 03:16:01;;;;;;;5.90;2.22;;;;;;;;;;5008928;28;20057;-68
2021/09/27 03:18:46;;;;;;;4.07;1.67;;;;;;;;;;5010239;28;20018;-67
2021/09/27 03:21:23;;;;;;;5.22;2.28;;;;;;;;;;5009938;28;20034;-69
2021/09/27 03:24:03;;;;;;;4.22;1.90;;;;;;;;;;5003759;28;20184;-72
2021/09/27 03:26:40;;;;;;;5.13;1.70;;;;;;;;;;5000580;28;20033;-72
2021/09/27 03:29:09;;;;;;;5.00;2.30;;;;;;;;;;4998350;28;20555;-74
2021/09/27 03:31:41;;;;;;;3.05;1.85;;;;;;;;;;4999754;28;20031;-74
2021/09/27 03:34:12;;;;;;;4.70;1.98;;;;;;;;;;4999069;28;20030;-73
2021/09/27 03:36:57;;;;;;;3.63;1.77;;;;;;;;;;4999077;28;20042;-72
2021/09/27 03:39:36;;;;;;;2.90;1.83;;;;;;;;;;4998986;28;20037;-72
2021/09/27 03:42:09;;;;;;;2.95;1.67;;;;;;;;;;4998663;28;20033;-74
2021/09/27 03:44:41;;;;;;;4.35;1.95;;;;;;;;;;4998352;28;20044;-70
2021/09/27 03:47:10;;;;;;;3.38;1.80;;;;;;;;;;4998222;28;20041;-71
2021/09/27 03:49:39;;;;;;;3.42;1.85;;;;;;;;;;4998396;28;20030;-74
2021/09/27 03:52:26;;;;;;;4.50;1.98;;;;;;;;;;4999199;28;20033;-73
2021/09/27 03:54:56;;;;;;;4.07;1.60;;;;;;;;;;4997912;28;20018;-73
2021/09/27 03:57:34;;;;;;;3.65;1.83;;;;;;;;;;4998642;28;20028;-73
2021/09/27 04:00:09;;;;;;;4.22;1.63;;;;;;;;;;5000714;28;20421;-67
2021/09/27 04:02:54;;;;;;;2.40;2.00;;;;;;;;;;5008161;28;20041;-68
2021/09/27 04:05:20;;;;;;;4.68;2.03;;;;;;;;;;5008986;28;20096;-68
2021/09/27 04:07:56;;;;;;;3.13;1.70;;;;;;;;;;5007696;28;20026;-69
2021/09/27 04:10:22;;;;;;;2.97;1.90;;;;;;;;;;5007899;28;20069;-69
2021/09/27 04:13:07;;;;;;;3.20;1.77;;;;;;;;;;5000097;28;20022;-68
2021/09/27 04:15:52;;;;;;;5.45;2.20;;;;;;;;;;4998164;28;20031;-72
2021/09/27 04:18:18;;;;;;;6.15;1.85;;;;;;;;;;4997323;28;20027;-73
2021/09/27 04:20:44;;;;;;;3.47;1.70;;;;;;;;;;4997384;28;20069;-71
2021/09/27 04:23:16;;;;;;;5.82;1.95;;;;;;;;;;4996538;28;20026;-70
2021/09/27 04:25:45;;;;;;;2.60;1.80;;;;;;;;;;4998201;28;20046;-70
2021/09/27 04:28:31;;;;;;;3.08;1.83;;;;;;;;;;4998261;28;20026;-75
2021/09/27 04:31:06;;;;;;;3.35;2.05;;;;;;;;;;4998833;28;20393;-72
2021/09/27 04:33:41;;;;;;;4.70;2.17;;;;;;;;;;4998508;28;20030;-70
2021/09/27 04:36:26;;;;;;;2.70;2.00;;;;;;;;;;4998600;28;20510;-72
2021/09/27 04:38:54;;;;;;;4.05;1.92;;;;;;;;;;5001420;28;20037;-71
2021/09/27 04:41:30;;;;;;;3.25;2.05;;;;;;;;;;5002034;28;20022;-73
2021/09/27 04:43:56;;;;;;;3.22;2.53;;;;;;;;;;5000773;28;20030;-72
2021/09/27 04:46:40;;;;;;;5.78;2.40;;;;;;;;;;5000152;28;20029;-71
2021/09/27 04:49:42;;;;;;;3.60;2.17;;;;;;;;;;4999513;28;20026;-72
2021/09/27 04:52:11;;;;;;;4.60;2.85;;;;;;;;;;4958072;28;20030;-74
2021/09/27 04:54:43;;;;;;;2.95;2.00;;;;;;;;;;4990245;28;20041;-76
2021/09/27 04:57:19;;;;;;;3.08;2.10;;;;;;;;;;4997707;28;20030;-72
2021/09/27 04:59:48;;;;;;;3.13;2.00;;;;;;;;;;4997189;28;20019;-72
2021/09/27 05:02:17;;;;;;;4.95;2.35;;;;;;;;;;4996782;28;20033;-71
2021/09/27 05:05:06;;;;;;;3.83;2.47;;;;;;;;;;4997361;28;20418;-74
2021/09/27 05:07:35;;;;;;;7.20;2.00;;;;;;;;;;4991790;28;20038;-68
2021/09/27 05:10:20;;;;;;;2.80;2.17;;;;;;;;;;4997971;28;20029;-72
2021/09/27 05:13:04;;;;;;;5.63;2.65;;;;;;;;;;4997721;28;20076;-74
2021/09/27 05:15:49;;;;;;;4.25;2.30;;;;;;;;;;4998184;28;20088;-72
2021/09/27 05:18:18;;;;;;;2.97;2.13;;;;;;;;;;4997791;28;20082;-74
2021/09/27 05:21:00;;;;;;;2.75;2.08;;;;;;;;;;4996742;28;20027;-72
2021/09/27 05:23:35;;;;;;;5.57;2.33;;;;;;;;;;4995991;28;20477;-71
2021/09/27 05:26:07;;;;;;;2.83;2.20;;;;;;;;;;4996334;28;20049;-75
2021/09/27 05:28:39;;;;;;;3.65;2.45;;;;;;;;;;4996261;28;20434;-73
2021/09/27 05:31:08;;;;;;;3.22;2.20;;;;;;;;;;4996667;28;20026;-74
2021/09/27 05:33:45;;;;;;;2.50;2.10;;;;;;;;;;4996000;28;20057;-66
2021/09/27 05:36:13;;;;;;;3.35;2.05;;;;;;;;;;4996176;28;20027;-72
2021/09/27 05:38:42;;;;;;;3.80;2.20;;;;;;;;;;4995645;28;20041;-73
2021/09/27 05:41:08;;;;;;;3.40;2.30;;;;;;;;;;4996400;28;20037;-68
2021/09/27 05:43:44;;;;;;;3.60;2.30;;;;;;;;;;4996677;28;20027;-71
2021/09/27 05:46:13;;;;;;;5.38;2.42;;;;;;;;;;4997105;28;20027;-70
2021/09/27 05:48:48;;;;;;;6.97;2.33;;;;;;;;;;4996329;28;20034;-74
2021/09/27 05:51:18;;;;;;;4.25;2.33;;;;;;;;;;4996638;28;20026;-71
2021/09/27 05:53:47;;;;;;;2.80;2.40;;;;;;;;;;4995960;28;20477;-74
2021/09/27 05:56:13;;;;;;;3.13;2.45;;;;;;;;;;4996128;28;20041;-72
2021/09/27 05:58:57;;;;;;;5.30;2.72;;;;;;;;;;4996656;28;20026;-72
2021/09/27 06:01:23;;;;;;;3.53;2.30;;;;;;;;;;4996865;28;20018;-73
2021/09/27 06:03:56;;;;;;;4.82;2.78;;;;;;;;;;4996108;28;20054;-67
2021/09/27 06:06:30;;;;;;;2.92;2.10;;;;;;;;;;4996019;28;20034;-72
2021/09/27 06:09:05;;;;;;;2.70;2.08;;;;;;;;;;4996688;28;20032;-70
2021/09/27 06:11:41;;;;;;;4.97;2.83;;;;;;;;;;4996697;28;20077;-74
2021/09/27 06:14:09;;;;;;;2.60;2.00;;;;;;;;;;4996991;28;20101;-70
2021/09/27 06:16:41;;;;;;;4.32;2.17;;;;;;;;;;4996453;28;20018;-73
2021/09/27 06:19:14;;;;;;;2.55;2.00;;;;;;;;;;5003209;28;20028;-71
2021/09/27 06:21:52;;;;;;;3.92;2.20;;;;;;;;;;5015950;28;20026;-67
2021/09/27 06:24:24;;;;;;;2.10;1.70;;;;;;;;;;5017118;28;20061;-74
2021/09/27 06:27:02;;;;;;;3.83;1.85;;;;;;;;;;5020650;28;20018;-73
2021/09/27 06:29:28;;;;;;;2.60;1.83;;;;;;;;;;5024588;28;20026;-73
2021/09/27 06:31:54;;;;;;;2.97;1.80;;;;;;;;;;5023428;28;20385;-74
2021/09/27 06:34:37;;;;;;;6.47;1.88;;;;;;;;;;5023156;28;20030;-73
2021/09/27 06:37:06;;;;;;;3.17;1.65;;;;;;;;;;5023579;28;20026;-69
2021/09/27 06:39:33;;;;;;;4.07;2.45;;;;;;;;;;5023330;28;20030;-73
2021/09/27 06:41:59;;;;;;;2.75;2.03;;;;;;;;;;5022012;28;20057;-73
2021/09/27 06:44:25;;;;;;;3.90;2.10;;;;;;;;;;5023532;28;20057;-72
2021/09/27 06:46:54;;;;;;;6.20;1.95;;;;;;;;;;5023347;28;20029;-73
2021/09/27 06:49:21;;;;;;;5.20;2.20;;;;;;;;;;5024595;28;20036;-73
2021/09/27 06:51:47;;;;;;;4.18;1.98;;;;;;;;;;5024624;28;20090;-72
2021/09/27 06:54:15;;;;;;;2.40;1.77;;;;;;;;;;5026162;28;20496;-70
2021/09/27 06:56:41;;;;;;;3.17;2.08;;;;;;;;;;5025419;28;20057;-73
2021/09/27 06:59:08;;;;;;;3.70;2.33;;;;;;;;;;5026703;28;20400;-66
2021/09/27 07:01:34;;;;;;;5.90;2.25;;;;;;;;;;5026259;28;20030;-67
2021/09/27 07:04:00;;;;;;;3.40;2.45;;;;;;;;;;5024491;28;20050;-70
2021/09/27 07:06:26;;;;;;;6.07;2.58;;;;;;;;;;5024468;28;20026;-71
2021/09/27 07:08:52;;;;;;;3.22;2.60;;;;;;;;;;5011612;28;20097;-67
2021/09/27 07:11:18;;;;;;;3.42;2.40;;;;;;;;;;5008714;28;20030;-74
2021/09/27 07:13:46;;;;;;;3.22;2.40;;;;;;;;;;5027360;28;20054;-72
2021/09/27 07:16:12;;;;;;;3.72;2.60;;;;;;;;;;5028292;28;20030;-70
2021/09/27 07:18:38;;;;;;;5.65;2.33;;;;;;;;;;5030691;28;20030;-68
2021/09/27 07:21:09;;;;;;;8.05;2.42;;;;;;;;;;5030723;28;20032;-67
2021/09/27 07:23:38;;;;;;;2.50;1.90;;;;;;;;;;5029891;28;20037;-70
2021/09/27 07:26:06;;;;;;;2.90;1.90;;;;;;;;;;5031313;28;20384;-65
2021/09/27 07:28:32;;;;;;;3.78;1.98;;;;;;;;;;5015986;28;20034;-75
2021/09/27 07:30:58;;;;;;;9.73;2.75;;;;;;;;;;5005564;28;20034;-69
2021/09/27 07:33:24;;;;;;;3.78;2.03;;;;;;;;;;5004231;28;20519;-67
2021/09/27 07:35:50;;;;;;;4.85;1.90;;;;;;;;;;5007381;28;20030;-66
2021/09/27 07:38:16;;;;;;;5.35;2.63;;;;;;;;;;5021345;28;20026;-72
2021/09/27 07:40:43;;;;;;;4.22;2.00;;;;;;;;;;5019252;28;20030;-67
2021/09/27 07:43:09;;;;;;;4.40;2.25;;;;;;;;;;5026629;28;20472;-68
2021/09/27 07:45:36;;;;;;;3.97;1.80;;;;;;;;;;5012342;28;20529;-72
2021/09/27 07:48:04;;;;;;;3.47;2.40;;;;;;;;;;5012642;28;20082;-73
2021/09/27 07:50:30;;;;;;;3.35;2.10;;;;;;;;;;5018254;28;20029;-65
2021/09/27 07:52:56;;;;;;;7.53;2.58;;;;;;;;;;5021857;28;20022;-65
2021/09/27 07:55:22;;;;;;;4.78;2.15;;;;;;;;;;5018469;28;20018;-66
2021/09/27 07:57:49;;;;;;;2.28;2.08;;;;;;;;;;5007532;28;20070;-67
2021/09/27 08:00:15;;;;;;;6.30;1.85;;;;;;;;;;5008279;28;20026;-71
2021/09/27 08:02:42;;;;;;;5.45;2.10;;;;;;;;;;5017511;28;20496;-65
2021/09/27 08:05:10;;;;;;;2.45;1.83;;;;;;;;;;5017315;28;20080;-70
2021/09/27 08:07:36;;;;;;;3.00;1.80;;;;;;;;;;5011908;28;20042;-67
2021/09/27 08:10:06;;;;;;;4.40;2.00;;;;;;;;;;5016432;28;20032;-66
2021/09/27 08:12:45;;;;;;;3.65;1.92;;;;;;;;;;5027067;28;20455;-67
2021/09/27 08:15:16;;;;;;;3.35;1.90;;;;;;;;;;5025101;28;20097;-66
2021/09/27 08:17:42;;;;;;;4.80;1.95;;;;;;;;;;5007001;28;20113;-71
2021/09/27 08:20:11;;;;;;;4.43;2.00;;;;;;;;;;5001901;28;20038;-69
2021/09/27 08:22:37;;;;;;;3.00;1.88;;;;;;;;;;5012048;28;20101;-67
2021/09/27 08:25:04;;;;;;;4.55;1.90;;;;;;;;;;5000878;28;20046;-73
2021/09/27 08:27:31;;;;;;;2.72;1.50;;;;;;;;;;5006124;28;20057;-66
2021/09/27 08:29:57;;;;;;;4.90;1.77;;;;;;;;;;5026233;28;20030;-68
2021/09/27 08:32:23;;;;;;;3.33;1.83;;;;;;;;;;5020384;28;20061;-70
2021/09/27 08:34:52;;;;;;;2.95;1.83;;;;;;;;;;5006859;28;20030;-66
2021/09/27 08:37:19;;;;;;;2.90;1.85;;;;;;;;;;5006372;28;20034;-70
2021/09/27 08:39:48;;;;;;;3.47;2.17;;;;;;;;;;5006493;28;20129;-74
2021/09/27 08:42:18;;;;;;;2.95;1.70;;;;;;;;;;5002424;28;20022;-73
2021/09/27 08:44:50;;;;;;;4.90;2.10;;;;;;;;;;5003400;28;20026;-67
2021/09/27 08:47:25;;;;;;;3.78;2.10;;;;;;;;;;5005327;28;20026;-70
2021/09/27 08:49:54;;;;;;;6.25;2.00;;;;;;;;;;5006530;28;20022;-72
2021/09/27 08:52:22;;;;;;;6.50;2.00;;;;;;;;;;5004905;28;20026;-67
2021/09/27 08:54:49;;;;;;;3.97;1.80;;;;;;;;;;5005791;28;20023;-69
2021/09/27 08:57:24;;;;;;;1.73;1.60;;;;;;;;;;5003440;28;20096;-68
2021/09/27 08:59:57;;;;;;;4.80;2.13;;;;;;;;;;5005367;28;20033;-68
2021/09/27 09:02:26;;;;;;;4.13;1.80;;;;;;;;;;5003462;28;20612;-69
2021/09/27 09:05:15;;;;;;;3.28;1.80;;;;;;;;;;5002907;28;20516;-66
2021/09/27 09:08:00;;;;;;;6.10;2.70;;;;;;;;;;5001835;28;20045;-67
2021/09/27 09:10:35;;;;;;;2.65;1.60;;;;;;;;;;5006373;28;20089;-68
2021/09/27 09:13:03;;;;;;;3.53;1.88;;;;;;;;;;5007592;28;20081;-69
2021/09/27 09:15:30;;;;;;;2.33;1.67;;;;;;;;;;5013784;28;20024;-69
2021/09/27 09:18:01;;;;;;;3.83;1.70;;;;;;;;;;5006441;28;20029;-66
2021/09/27 09:20:35;;;;;;;5.68;1.90;;;;;;;;;;5007342;28;20532;-74
2021/09/27 09:23:02;;;;;;;4.03;1.73;;;;;;;;;;4999219;28;20030;-72
2021/09/27 09:25:28;;;;;;;5.40;1.73;;;;;;;;;;5003963;28;20031;-68
2021/09/27 09:27:55;;;;;;;6.05;2.00;;;;;;;;;;5006718;28;20030;-72
2021/09/27 09:30:23;;;;;;;6.38;1.90;;;;;;;;;;5007869;28;20085;-67
2021/09/27 09:32:52;;;;;;;4.53;2.08;;;;;;;;;;5005674;28;20054;-69
2021/09/27 09:35:19;;;;;;;5.03;1.75;;;;;;;;;;5006621;28;20072;-66
2021/09/27 09:37:55;;;;;;;4.22;1.70;;;;;;;;;;5007939;28;20401;-67
2021/09/27 09:40:29;;;;;;;4.32;1.77;;;;;;;;;;5017992;28;20045;-70
2021/09/27 09:42:55;;;;;;;2.67;1.52;;;;;;;;;;5027047;28;20036;-67
2021/09/27 09:45:23;;;;;;;4.43;1.90;;;;;;;;;;5026972;28;20030;-70
2021/09/27 09:47:49;;;;;;;5.18;1.60;;;;;;;;;;5025595;28;20030;-72
2021/09/27 09:50:22;;;;;;;6.47;1.90;;;;;;;;;;5018900;28;20026;-70
2021/09/27 09:52:48;;;;;;;6.43;1.80;;;;;;;;;;5019017;28;20425;-70
2021/09/27 09:55:14;;;;;;;3.25;1.85;;;;;;;;;;5010428;28;20045;-71
2021/09/27 09:57:41;;;;;;;3.63;1.90;;;;;;;;;;5022112;28;20080;-70
2021/09/27 10:00:07;;;;;;;7.80;1.98;;;;;;;;;;5022283;28;20096;-71
2021/09/27 10:02:34;;;;;;;3.00;1.75;;;;;;;;;;5016100;28;20099;-70
2021/09/27 10:05:08;;;;;;;4.38;2.10;;;;;;;;;;5004669;28;20100;-73
2021/09/27 10:07:46;;;;;;;2.72;1.65;;;;;;;;;;5002265;28;20025;-74
2021/09/27 10:10:23;;;;;;;3.30;1.83;;;;;;;;;;5005161;28;20030;-67
2021/09/27 10:12:51;;;;;;;3.72;1.70;;;;;;;;;;5004303;28;20389;-75
2021/09/27 10:15:38;;;;;;;4.75;1.80;;;;;;;;;;5000063;28;20120;-73
2021/09/27 10:18:04;;;;;;;4.55;1.60;;;;;;;;;;5019314;28;20084;-70
2021/09/27 10:20:35;;;;;;;5.07;1.70;;;;;;;;;;5017581;28;20030;-67
2021/09/27 10:23:04;;;;;;;5.50;2.00;;;;;;;;;;5025009;28;20037;-68
2021/09/27 10:25:39;;;;;;;5.03;2.03;;;;;;;;;;5024977;28;20109;-67
2021/09/27 10:28:07;;;;;;;8.15;2.60;;;;;;;;;;5019054;28;20057;-70
2021/09/27 10:30:39;;;;;;;8.60;2.10;;;;;;;;;;5024050;28;20116;-67
2021/09/27 10:33:22;;;;;;;5.53;2.30;;;;;;;;;;5018931;28;20024;-69
2021/09/27 10:36:00;;;;;;;4.85;2.13;;;;;;;;;;5010617;28;20369;-68
2021/09/27 10:38:46;;;;;;;2.92;1.58;;;;;;;;;;5007319;28;20031;-72
2021/09/27 10:41:20;;;;;;;4.15;2.00;;;;;;;;;;5003920;28;20064;-70
2021/09/27 10:43:47;;;;;;;5.70;1.95;;;;;;;;;;5004267;28;20034;-71
2021/09/27 10:46:15;;;;;;;2.88;1.90;;;;;;;;;;5017846;28;20076;-67
2021/09/27 10:48:45;;;;;;;6.70;1.88;;;;;;;;;;5024442;28;20030;-66
2021/09/27 10:51:11;;;;;;;3.67;1.70;;;;;;;;;;5022488;28;20030;-67
2021/09/27 10:53:46;;;;;;;4.25;1.90;;;;;;;;;;5010231;28;20029;-72
2021/09/27 10:56:31;;;;;;;4.97;1.90;;;;;;;;;;5019661;28;20090;-68
2021/09/27 10:59:04;;;;;;;3.13;1.70;;;;;;;;;;5022399;28;20037;-69
2021/09/27 11:01:38;;;;;;;2.90;1.80;;;;;;;;;;5019938;28;20383;-70
2021/09/27 11:04:06;;;;;;;5.32;1.75;;;;;;;;;;5017047;28;20461;-72
2021/09/27 11:06:32;;;;;;;4.45;1.88;;;;;;;;;;5018760;28;20059;-67
2021/09/27 11:09:01;;;;;;;3.10;1.67;;;;;;;;;;5018483;28;20034;-69
2021/09/27 11:11:30;;;;;;;3.80;2.40;;;;;;;;;;5006973;28;20064;-66
2021/09/27 11:13:58;;;;;;;3.72;1.80;;;;;;;;;;5008857;28;20022;-66
2021/09/27 11:16:31;;;;;;;5.00;2.88;;;;;;;;;;5017767;28;20021;-71
2021/09/27 11:19:08;;;;;;;8.02;2.33;;;;;;;;;;5019544;28;20081;-72
2021/09/27 11:21:37;;;;;;;5.75;1.88;;;;;;;;;;5021932;28;20026;-70
2021/09/27 11:24:09;;;;;;;3.55;1.98;;;;;;;;;;5005114;28;20042;-67
2021/09/27 11:26:37;;;;;;;2.65;1.77;;;;;;;;;;5001899;28;20026;-73
2021/09/27 11:29:22;;;;;;;5.00;1.80;;;;;;;;;;4998527;28;20038;-71
2021/09/27 11:32:09;;;;;;;4.97;2.05;;;;;;;;;;4997319;28;20022;-65
2021/09/27 11:34:38;;;;;;;6.03;2.15;;;;;;;;;;5002029;28;20030;-68
2021/09/27 11:37:22;;;;;;;3.47;1.60;;;;;;;;;;5004182;28;20141;-71
2021/09/27 11:39:50;;;;;;;4.18;2.35;;;;;;;;;;5010976;28;20022;-72
2021/09/27 11:42:19;;;;;;;3.53;1.90;;;;;;;;;;5008990;28;20039;-72
2021/09/27 11:44:53;;;;;;;2.63;1.88;;;;;;;;;;5017987;28;20034;-71
2021/09/27 11:47:45;;;;;;;3.00;1.90;;;;;;;;;;5023690;28;20026;-65
2021/09/27 11:50:29;;;;;;;4.57;2.17;;;;;;;;;;5013911;28;20060;-68
2021/09/27 11:53:11;;;;;;;4.28;2.33;;;;;;;;;;5015866;28;20030;-68
2021/09/27 11:55:39;;;;;;;3.00;1.98;;;;;;;;;;5014101;28;20110;-69
2021/09/27 11:58:23;;;;;;;4.68;2.00;;;;;;;;;;4998521;28;20113;-73
2021/09/27 12:01:10;;;;;;;4.47;2.53;;;;;;;;;;5000053;28;20551;-70
2021/09/27 12:03:55;;;;;;;5.50;2.08;;;;;;;;;;5014675;28;20042;-72
2021/09/27 12:06:23;;;;;;;3.25;1.88;;;;;;;;;;5011428;28;20078;-70
2021/09/27 12:08:55;;;;;;;5.38;2.08;;;;;;;;;;5008194;28;20033;-73
2021/09/27 12:11:21;;;;;;;3.45;1.70;;;;;;;;;;5012305;28;20037;-72
2021/09/27 12:13:49;;;;;;;6.63;2.42;;;;;;;;;;5015936;28;20473;-71
2021/09/27 12:16:37;;;;;;;6.05;2.72;;;;;;;;;;5019733;28;20033;-70
2021/09/27 12:19:19;;;;;;;2.97;1.80;;;;;;;;;;5015580;28;20381;-75
2021/09/27 12:21:48;;;;;;;2.30;1.58;;;;;;;;;;5017096;28;20083;-68
2021/09/27 12:24:19;;;;;;;3.65;1.90;;;;;;;;;;5011927;28;20507;-71
2021/09/27 12:27:04;;;;;;;6.93;2.10;;;;;;;;;;5018315;28;20034;-73
2021/09/27 12:29:30;;;;;;;4.32;1.95;;;;;;;;;;5017449;28;20072;-68
2021/09/27 12:32:00;;;;;;;6.82;2.38;;;;;;;;;;5017372;28;20500;-74
2021/09/27 12:34:37;;;;;;;5.15;2.00;;;;;;;;;;5015237;28;20030;-73
2021/09/27 12:37:07;;;;;;;3.75;1.60;;;;;;;;;;5016149;28;20030;-70
2021/09/27 12:39:35;;;;;;;3.17;2.17;;;;;;;;;;5015204;28;20570;-70
2021/09/27 12:42:03;;;;;;;4.97;1.85;;;;;;;;;;5015628;28;20040;-73
2021/09/27 12:44:32;;;;;;;6.68;2.47;;;;;;;;;;5005997;28;20181;-72
2021/09/27 12:47:00;;;;;;;3.08;2.00;;;;;;;;;;5004482;28;20374;-70
2021/09/27 12:49:29;;;;;;;4.43;1.80;;;;;;;;;;4994774;28;20496;-72
2021/09/27 12:51:56;;;;;;;6.10;1.70;;;;;;;;;;5002693;28;20023;-71
2021/09/27 12:54:22;;;;;;;5.93;1.90;;;;;;;;;;5006475;28;20034;-73
2021/09/27 12:56:48;;;;;;;5.68;2.05;;;;;;;;;;4993259;28;20490;-72
2021/09/27 12:59:18;;;;;;;6.97;2.20;;;;;;;;;;5002411;28;20034;-74
2021/09/27 13:01:51;;;;;;;3.10;1.77;;;;;;;;;;4997127;28;20030;-74
2021/09/27 13:04:44;;;;;;;8.55;2.00;;;;;;;;;;5001365;28;20042;-76
2021/09/27 13:07:11;;;;;;;6.30;3.10;;;;;;;;;;4992257;28;20109;-72
2021/09/27 13:09:54;;;;;;;4.13;2.10;;;;;;;;;;5008620;28;20125;-72
2021/09/27 13:12:23;;;;;;;4.95;2.08;;;;;;;;;;4995208;28;20029;-73
2021/09/27 13:14:54;;;;;;;4.35;2.25;;;;;;;;;;4995428;28;20035;-70
2021/09/27 13:17:27;;;;;;;7.32;2.33;;;;;;;;;;4998237;28;20092;-72
2021/09/27 13:19:55;;;;;;;2.70;1.60;;;;;;;;;;4997165;28;20036;-74
2021/09/27 13:22:38;;;;;;;4.80;1.88;;;;;;;;;;4992311;28;20065;-71
2021/09/27 13:25:07;;;;;;;4.38;1.50;;;;;;;;;;5010413;28;20431;-70
2021/09/27 13:27:37;;;;;;;2.55;1.20;;;;;;;;;;5013432;28;20538;-71
2021/09/27 13:30:12;;;;;;;2.35;1.40;;;;;;;;;;5011340;28;20120;-75
2021/09/27 13:32:38;;;;;;;6.45;2.30;;;;;;;;;;5012985;28;20034;-74
2021/09/27 13:35:16;;;;;;;1.92;1.30;;;;;;;;;;5014321;28;20029;-74
2021/09/27 13:37:42;;;;;;;1.33;1.10;;;;;;;;;;5011883;28;20057;-73
2021/09/27 13:40:20;;;;;;;3.42;1.48;;;;;;;;;;5011405;28;20038;-73
2021/09/27 13:42:49;;;;;;;3.50;1.40;;;;;;;;;;5010903;28;20034;-73
2021/09/27 13:45:37;;;;;;;2.55;1.55;;;;;;;;;;5010703;28;20056;-73
2021/09/27 13:48:03;;;;;;;2.63;1.60;;;;;;;;;;5012554;28;20029;-73
2021/09/27 13:50:29;;;;;;;2.05;1.40;;;;;;;;;;5012456;28;20034;-73
2021/09/27 13:53:13;;;;;;;2.53;1.40;;;;;;;;;;5012798;28;20385;-73
2021/09/27 13:55:39;;;;;;;2.30;1.85;;;;;;;;;;5013266;28;20026;-74
2021/09/27 13:58:06;;;;;;;3.10;2.22;;;;;;;;;;5011961;28;20017;-73
2021/09/27 14:00:34;;;;;;;2.42;1.50;;;;;;;;;;5010920;28;20030;-73
2021/09/27 14:03:00;;;;;;;2.20;1.80;;;;;;;;;;5017907;28;20030;-73
2021/09/27 14:05:26;;;;;;;3.83;2.03;;;;;;;;;;5015639;28;20045;-73
2021/09/27 14:07:52;;;;;;;2.03;1.50;;;;;;;;;;5017283;28;20588;-67
2021/09/27 14:10:19;;;;;;;3.95;1.80;;;;;;;;;;5021218;28;20181;-67
2021/09/27 14:12:45;;;;;;;5.30;1.73;;;;;;;;;;5016621;28;20053;-74
2021/09/27 14:15:11;;;;;;;4.60;2.30;;;;;;;;;;5012148;28;20025;-73
2021/09/27 14:17:38;;;;;;;3.83;2.45;;;;;;;;;;5014120;28;20022;-73
2021/09/27 14:20:07;;;;;;;3.08;2.28;;;;;;;;;;5014087;28;20115;-73
2021/09/27 14:22:34;;;;;;;1.77;1.50;;;;;;;;;;5012717;28;20521;-73
2021/09/27 14:25:00;;;;;;;1.88;1.40;;;;;;;;;;5011059;28;20034;-76
2021/09/27 14:27:26;;;;;;;2.03;1.48;;;;;;;;;;5010734;28;20513;-74
2021/09/27 14:29:57;;;;;;;2.30;1.70;;;;;;;;;;5011517;28;20487;-73
2021/09/27 14:32:27;;;;;;;2.53;1.60;;;;;;;;;;5011262;28;20059;-73
2021/09/27 14:34:54;;;;;;;2.92;2.17;;;;;;;;;;5014663;28;20432;-74
2021/09/27 14:37:20;;;;;;;4.10;2.13;;;;;;;;;;5013355;28;20030;-73
2021/09/27 14:39:47;;;;;;;6.57;2.35;;;;;;;;;;5013052;28;20064;-72
2021/09/27 14:42:13;;;;;;;4.53;2.15;;;;;;;;;;5013046;28;20033;-73
2021/09/27 14:44:41;;;;;;;3.95;2.20;;;;;;;;;;5014899;28;20460;-74
2021/09/27 14:47:07;;;;;;;3.30;2.28;;;;;;;;;;5015819;28;20045;-73
2021/09/27 14:49:33;;;;;;;4.00;1.83;;;;;;;;;;5014615;28;20038;-71
2021/09/27 14:52:06;;;;;;;5.32;2.50;;;;;;;;;;5017499;28;20038;-72
2021/09/27 14:54:32;;;;;;;5.32;1.90;;;;;;;;;;5008624;28;20054;-71
2021/09/27 14:56:58;;;;;;;4.07;2.75;;;;;;;;;;5003721;28;20159;-71
2021/09/27 14:59:24;;;;;;;3.47;2.00;;;;;;;;;;5013030;28;20034;-73
2021/09/27 15:01:50;;;;;;;3.38;2.60;;;;;;;;;;5017008;28;20607;-71
2021/09/27 15:04:17;;;;;;;5.10;2.50;;;;;;;;;;5008767;28;20080;-73
2021/09/27 15:06:43;;;;;;;4.07;2.47;;;;;;;;;;4994899;28;20037;-71
2021/09/27 15:09:09;;;;;;;4.47;2.80;;;;;;;;;;4995205;28;20061;-73